sensor_id;sensor_type;location;lat;lon;timestamp;temperature;humidity
10231;DHT22;62604;49.432;8.680;2023-02-28T00:01:23;0.90;42.30
10231;DHT22;62604;49.432;8.680;2023-02-28T00:03:50;0.80;42.20
10231;DHT22;62604;49.432;8.680;2023-02-28T00:06:17;0.80;42.60
10231;DHT22;62604;49.432;8.680;2023-02-28T00:08:46;0.70;43.10
10231;DHT22;62604;49.432;8.680;2023-02-28T00:11:14;0.70;43.40
10231;DHT22;62604;49.432;8.680;2023-02-28T00:13:43;0.70;44.20
10231;DHT22;62604;49.432;8.680;2023-02-28T00:16:13;0.60;43.80
10231;DHT22;62604;49.432;8.680;2023-02-28T00:18:41;0.60;44.50
10231;DHT22;62604;49.432;8.680;2023-02-28T00:21:08;0.50;44.90
10231;DHT22;62604;49.432;8.680;2023-02-28T00:23:35;0.50;45.30
10231;DHT22;62604;49.432;8.680;2023-02-28T00:26:04;0.40;45.90
10231;DHT22;62604;49.432;8.680;2023-02-28T00:28:31;0.40;46.60
10231;DHT22;62604;49.432;8.680;2023-02-28T00:30:57;0.40;46.90
10231;DHT22;62604;49.432;8.680;2023-02-28T00:33:25;0.40;47.20
10231;DHT22;62604;49.432;8.680;2023-02-28T00:35:54;0.30;47.50
10231;DHT22;62604;49.432;8.680;2023-02-28T00:38:27;0.20;47.80
10231;DHT22;62604;49.432;8.680;2023-02-28T00:40:54;0.30;47.90
10231;DHT22;62604;49.432;8.680;2023-02-28T00:43:22;0.30;48.00
10231;DHT22;62604;49.432;8.680;2023-02-28T00:45:49;0.30;48.60
10231;DHT22;62604;49.432;8.680;2023-02-28T00:48:16;0.30;48.50
10231;DHT22;62604;49.432;8.680;2023-02-28T00:50:43;0.30;48.80
10231;DHT22;62604;49.432;8.680;2023-02-28T00:53:09;0.30;49.40
10231;DHT22;62604;49.432;8.680;2023-02-28T00:55:36;0.30;49.40
10231;DHT22;62604;49.432;8.680;2023-02-28T00:58:03;0.20;49.90
10231;DHT22;62604;49.432;8.680;2023-02-28T01:00:32;0.20;50.10
10231;DHT22;62604;49.432;8.680;2023-02-28T01:02:58;0.20;50.30
10231;DHT22;62604;49.432;8.680;2023-02-28T01:05:25;0.20;50.60
10231;DHT22;62604;49.432;8.680;2023-02-28T01:07:53;0.20;51.20
10231;DHT22;62604;49.432;8.680;2023-02-28T01:10:19;0.20;51.30
10231;DHT22;62604;49.432;8.680;2023-02-28T01:12:47;0.20;51.20
10231;DHT22;62604;49.432;8.680;2023-02-28T01:15:14;0.20;51.80
10231;DHT22;62604;49.432;8.680;2023-02-28T01:17:42;0.20;52.30
10231;DHT22;62604;49.432;8.680;2023-02-28T01:20:10;0.20;52.70
10231;DHT22;62604;49.432;8.680;2023-02-28T01:22:37;0.20;53.80
10231;DHT22;62604;49.432;8.680;2023-02-28T01:25:04;0.20;53.80
10231;DHT22;62604;49.432;8.680;2023-02-28T01:27:31;0.20;54.30
10231;DHT22;62604;49.432;8.680;2023-02-28T01:29:59;0.10;53.60
10231;DHT22;62604;49.432;8.680;2023-02-28T01:32:26;0.10;53.80
10231;DHT22;62604;49.432;8.680;2023-02-28T01:34:55;0.10;54.70
10231;DHT22;62604;49.432;8.680;2023-02-28T01:37:21;0.10;55.00
10231;DHT22;62604;49.432;8.680;2023-02-28T01:39:48;0.10;54.90
10231;DHT22;62604;49.432;8.680;2023-02-28T01:42:15;0.10;54.50
10231;DHT22;62604;49.432;8.680;2023-02-28T01:44:59;0.10;54.50
10231;DHT22;62604;49.432;8.680;2023-02-28T01:47:29;0.10;54.80
10231;DHT22;62604;49.432;8.680;2023-02-28T01:49:58;0.10;55.10
10231;DHT22;62604;49.432;8.680;2023-02-28T01:52:27;0.10;55.80
10231;DHT22;62604;49.432;8.680;2023-02-28T01:54:56;0.10;56.10
10231;DHT22;62604;49.432;8.680;2023-02-28T01:57:29;0.10;56.30
10231;DHT22;62604;49.432;8.680;2023-02-28T02:00:05;0.10;56.10
10231;DHT22;62604;49.432;8.680;2023-02-28T02:02:36;0.10;56.60
10231;DHT22;62604;49.432;8.680;2023-02-28T02:05:06;0.00;56.20
10231;DHT22;62604;49.432;8.680;2023-02-28T02:07:36;0.10;56.60
10231;DHT22;62604;49.432;8.680;2023-02-28T02:10:09;0.00;57.00
10231;DHT22;62604;49.432;8.680;2023-02-28T02:15:33;0.00;57.10
10231;DHT22;62604;49.432;8.680;2023-02-28T02:18:04;0.00;57.50
10231;DHT22;62604;49.432;8.680;2023-02-28T02:21:07;0.00;57.30
10231;DHT22;62604;49.432;8.680;2023-02-28T02:26:57;0.00;57.30
10231;DHT22;62604;49.432;8.680;2023-02-28T02:29:47;0.00;57.70
10231;DHT22;62604;49.432;8.680;2023-02-28T02:35:26;0.00;57.70
10231;DHT22;62604;49.432;8.680;2023-02-28T02:38:02;0.00;58.10
10231;DHT22;62604;49.432;8.680;2023-02-28T02:40:35;0.00;57.90
10231;DHT22;62604;49.432;8.680;2023-02-28T02:43:08;0.00;58.30
10231;DHT22;62604;49.432;8.680;2023-02-28T02:45:42;-0.10;58.30
10231;DHT22;62604;49.432;8.680;2023-02-28T02:48:13;-0.10;58.60
10231;DHT22;62604;49.432;8.680;2023-02-28T02:50:45;-0.10;58.60
10231;DHT22;62604;49.432;8.680;2023-02-28T02:53:14;-0.10;58.80
10231;DHT22;62604;49.432;8.680;2023-02-28T02:55:45;-0.10;60.00
10231;DHT22;62604;49.432;8.680;2023-02-28T02:58:22;-0.10;59.20
10231;DHT22;62604;49.432;8.680;2023-02-28T03:00:52;-0.10;59.40
10231;DHT22;62604;49.432;8.680;2023-02-28T03:03:20;-0.10;59.30
10231;DHT22;62604;49.432;8.680;2023-02-28T03:05:57;-0.10;59.60
10231;DHT22;62604;49.432;8.680;2023-02-28T03:08:25;-0.10;59.20
10231;DHT22;62604;49.432;8.680;2023-02-28T03:10:56;-0.10;59.70
10231;DHT22;62604;49.432;8.680;2023-02-28T03:13:42;-0.10;60.10
10231;DHT22;62604;49.432;8.680;2023-02-28T03:16:33;-0.10;60.30
10231;DHT22;62604;49.432;8.680;2023-02-28T03:19:25;-0.20;60.40
10231;DHT22;62604;49.432;8.680;2023-02-28T03:22:08;-0.20;60.40
10231;DHT22;62604;49.432;8.680;2023-02-28T03:24:43;-0.20;60.70
10231;DHT22;62604;49.432;8.680;2023-02-28T03:27:17;-0.20;61.30
10231;DHT22;62604;49.432;8.680;2023-02-28T03:29:50;-0.30;61.60
10231;DHT22;62604;49.432;8.680;2023-02-28T03:32:23;-0.30;61.90
10231;DHT22;62604;49.432;8.680;2023-02-28T03:34:56;-0.30;61.50
10231;DHT22;62604;49.432;8.680;2023-02-28T03:37:35;-0.20;61.70
10231;DHT22;62604;49.432;8.680;2023-02-28T03:40:08;-0.20;62.00
10231;DHT22;62604;49.432;8.680;2023-02-28T03:42:41;-0.20;62.20
10231;DHT22;62604;49.432;8.680;2023-02-28T03:45:12;-0.20;62.40
10231;DHT22;62604;49.432;8.680;2023-02-28T03:47:48;-0.30;63.00
10231;DHT22;62604;49.432;8.680;2023-02-28T03:50:21;-0.30;63.00
10231;DHT22;62604;49.432;8.680;2023-02-28T03:52:54;-0.30;63.50
10231;DHT22;62604;49.432;8.680;2023-02-28T03:55:29;-0.30;63.50
10231;DHT22;62604;49.432;8.680;2023-02-28T03:58:01;-0.30;63.50
10231;DHT22;62604;49.432;8.680;2023-02-28T04:00:31;-0.30;63.80
10231;DHT22;62604;49.432;8.680;2023-02-28T04:03:01;-0.40;63.70
10231;DHT22;62604;49.432;8.680;2023-02-28T04:08:51;-0.30;64.30
10231;DHT22;62604;49.432;8.680;2023-02-28T04:11:22;-0.30;64.10
10231;DHT22;62604;49.432;8.680;2023-02-28T04:13:50;-0.30;64.00
10231;DHT22;62604;49.432;8.680;2023-02-28T04:16:17;-0.40;64.10
10231;DHT22;62604;49.432;8.680;2023-02-28T04:18:44;-0.40;64.50
10231;DHT22;62604;49.432;8.680;2023-02-28T04:21:11;-0.40;64.30
10231;DHT22;62604;49.432;8.680;2023-02-28T04:23:38;-0.40;64.40
10231;DHT22;62604;49.432;8.680;2023-02-28T04:26:07;-0.40;64.70
10231;DHT22;62604;49.432;8.680;2023-02-28T04:28:34;-0.40;64.50
10231;DHT22;62604;49.432;8.680;2023-02-28T04:31:02;-0.40;64.70
10231;DHT22;62604;49.432;8.680;2023-02-28T04:33:30;-0.40;64.50
10231;DHT22;62604;49.432;8.680;2023-02-28T04:35:59;-0.40;64.50
10231;DHT22;62604;49.432;8.680;2023-02-28T04:38:26;-0.40;64.40
10231;DHT22;62604;49.432;8.680;2023-02-28T04:40:53;-0.30;65.00
10231;DHT22;62604;49.432;8.680;2023-02-28T04:43:21;-0.30;65.00
10231;DHT22;62604;49.432;8.680;2023-02-28T04:45:48;-0.30;64.70
10231;DHT22;62604;49.432;8.680;2023-02-28T04:48:15;-0.40;64.60
10231;DHT22;62604;49.432;8.680;2023-02-28T04:50:42;-0.40;64.70
10231;DHT22;62604;49.432;8.680;2023-02-28T04:53:09;-0.30;65.00
10231;DHT22;62604;49.432;8.680;2023-02-28T04:55:36;-0.30;65.10
10231;DHT22;62604;49.432;8.680;2023-02-28T04:58:05;-0.30;64.70
10231;DHT22;62604;49.432;8.680;2023-02-28T05:00:34;-0.20;64.70
10231;DHT22;62604;49.432;8.680;2023-02-28T05:03:01;-0.20;64.60
10231;DHT22;62604;49.432;8.680;2023-02-28T05:05:28;-0.30;64.50
10231;DHT22;62604;49.432;8.680;2023-02-28T05:07:55;-0.20;64.60
10231;DHT22;62604;49.432;8.680;2023-02-28T05:10:22;-0.20;64.20
10231;DHT22;62604;49.432;8.680;2023-02-28T05:12:49;-0.20;64.30
10231;DHT22;62604;49.432;8.680;2023-02-28T05:15:16;-0.20;64.20
10231;DHT22;62604;49.432;8.680;2023-02-28T05:17:45;-0.20;63.90
10231;DHT22;62604;49.432;8.680;2023-02-28T05:20:12;-0.20;64.00
10231;DHT22;62604;49.432;8.680;2023-02-28T05:22:40;-0.20;63.90
10231;DHT22;62604;49.432;8.680;2023-02-28T05:25:09;-0.10;64.40
10231;DHT22;62604;49.432;8.680;2023-02-28T05:27:37;-0.10;63.70
10231;DHT22;62604;49.432;8.680;2023-02-28T05:30:06;-0.10;64.50
10231;DHT22;62604;49.432;8.680;2023-02-28T05:32:35;0.00;63.60
10231;DHT22;62604;49.432;8.680;2023-02-28T05:35:05;-0.10;62.90
10231;DHT22;62604;49.432;8.680;2023-02-28T05:37:32;0.00;63.50
10231;DHT22;62604;49.432;8.680;2023-02-28T05:39:59;-0.10;63.10
10231;DHT22;62604;49.432;8.680;2023-02-28T05:42:26;-0.10;63.90
10231;DHT22;62604;49.432;8.680;2023-02-28T05:44:52;-0.10;63.60
10231;DHT22;62604;49.432;8.680;2023-02-28T05:47:19;-0.20;63.20
10231;DHT22;62604;49.432;8.680;2023-02-28T05:49:46;-0.20;63.20
10231;DHT22;62604;49.432;8.680;2023-02-28T05:52:14;-0.20;63.80
10231;DHT22;62604;49.432;8.680;2023-02-28T05:54:41;-0.20;64.10
10231;DHT22;62604;49.432;8.680;2023-02-28T05:57:08;-0.20;62.90
10231;DHT22;62604;49.432;8.680;2023-02-28T05:59:35;-0.20;63.30
10231;DHT22;62604;49.432;8.680;2023-02-28T06:02:05;-0.20;63.20
10231;DHT22;62604;49.432;8.680;2023-02-28T06:04:34;-0.20;63.40
10231;DHT22;62604;49.432;8.680;2023-02-28T06:07:00;-0.20;63.90
10231;DHT22;62604;49.432;8.680;2023-02-28T06:09:30;-0.10;63.60
10231;DHT22;62604;49.432;8.680;2023-02-28T06:11:58;-0.10;63.10
10231;DHT22;62604;49.432;8.680;2023-02-28T06:14:24;-0.10;63.20
10231;DHT22;62604;49.432;8.680;2023-02-28T06:16:52;-0.10;62.90
10231;DHT22;62604;49.432;8.680;2023-02-28T06:19:19;-0.10;62.60
10231;DHT22;62604;49.432;8.680;2023-02-28T06:21:49;-0.10;63.00
10231;DHT22;62604;49.432;8.680;2023-02-28T06:24:16;-0.10;62.90
10231;DHT22;62604;49.432;8.680;2023-02-28T06:26:44;-0.10;62.80
10231;DHT22;62604;49.432;8.680;2023-02-28T06:29:11;-0.10;62.50
10231;DHT22;62604;49.432;8.680;2023-02-28T06:31:38;-0.10;62.40
10231;DHT22;62604;49.432;8.680;2023-02-28T06:34:05;0.00;62.80
10231;DHT22;62604;49.432;8.680;2023-02-28T06:36:32;0.00;62.40
10231;DHT22;62604;49.432;8.680;2023-02-28T06:38:59;0.00;62.20
10231;DHT22;62604;49.432;8.680;2023-02-28T06:41:26;0.00;62.10
10231;DHT22;62604;49.432;8.680;2023-02-28T06:43:55;0.00;62.00
10231;DHT22;62604;49.432;8.680;2023-02-28T06:46:22;0.00;61.80
10231;DHT22;62604;49.432;8.680;2023-02-28T06:48:49;0.20;64.30
10231;DHT22;62604;49.432;8.680;2023-02-28T06:51:18;0.20;62.00
10231;DHT22;62604;49.432;8.680;2023-02-28T06:53:46;0.30;63.40
10231;DHT22;62604;49.432;8.680;2023-02-28T06:56:15;0.30;61.80
10231;DHT22;62604;49.432;8.680;2023-02-28T06:58:46;0.40;62.00
10231;DHT22;62604;49.432;8.680;2023-02-28T07:01:15;0.50;61.60
10231;DHT22;62604;49.432;8.680;2023-02-28T07:03:42;0.40;60.50
10231;DHT22;62604;49.432;8.680;2023-02-28T07:06:09;0.40;60.60
10231;DHT22;62604;49.432;8.680;2023-02-28T07:08:36;0.50;60.80
10231;DHT22;62604;49.432;8.680;2023-02-28T07:11:05;0.50;60.00
10231;DHT22;62604;49.432;8.680;2023-02-28T07:13:32;0.50;60.00
10231;DHT22;62604;49.432;8.680;2023-02-28T07:16:01;0.50;59.50
10231;DHT22;62604;49.432;8.680;2023-02-28T07:18:30;0.50;59.60
10231;DHT22;62604;49.432;8.680;2023-02-28T07:20:58;0.60;59.80
10231;DHT22;62604;49.432;8.680;2023-02-28T07:23:25;0.80;59.70
10231;DHT22;62604;49.432;8.680;2023-02-28T07:25:52;0.90;58.80
10231;DHT22;62604;49.432;8.680;2023-02-28T07:28:19;1.00;58.30
10231;DHT22;62604;49.432;8.680;2023-02-28T07:30:46;1.10;58.20
10231;DHT22;62604;49.432;8.680;2023-02-28T07:33:13;1.00;57.50
10231;DHT22;62604;49.432;8.680;2023-02-28T07:35:42;1.20;57.50
10231;DHT22;62604;49.432;8.680;2023-02-28T07:38:09;1.50;56.10
10231;DHT22;62604;49.432;8.680;2023-02-28T07:40:36;1.80;55.50
10231;DHT22;62604;49.432;8.680;2023-02-28T07:43:03;2.30;54.10
10231;DHT22;62604;49.432;8.680;2023-02-28T07:45:30;2.50;53.30
10231;DHT22;62604;49.432;8.680;2023-02-28T07:47:58;2.70;51.50
10231;DHT22;62604;49.432;8.680;2023-02-28T07:50:25;3.10;51.30
10231;DHT22;62604;49.432;8.680;2023-02-28T07:52:56;4.10;49.30
10231;DHT22;62604;49.432;8.680;2023-02-28T07:55:23;5.40;46.20
10231;DHT22;62604;49.432;8.680;2023-02-28T07:57:50;6.40;40.00
10231;DHT22;62604;49.432;8.680;2023-02-28T08:00:17;7.50;35.10
10231;DHT22;62604;49.432;8.680;2023-02-28T08:02:44;8.50;32.70
10231;DHT22;62604;49.432;8.680;2023-02-28T08:05:11;8.50;29.30
10231;DHT22;62604;49.432;8.680;2023-02-28T08:07:38;9.30;26.50
10231;DHT22;62604;49.432;8.680;2023-02-28T08:10:07;9.00;25.90
10231;DHT22;62604;49.432;8.680;2023-02-28T08:12:35;10.20;23.50
10231;DHT22;62604;49.432;8.680;2023-02-28T08:15:02;10.30;23.00
10231;DHT22;62604;49.432;8.680;2023-02-28T08:17:30;10.20;21.50
10231;DHT22;62604;49.432;8.680;2023-02-28T08:19:56;10.80;21.30
10231;DHT22;62604;49.432;8.680;2023-02-28T08:22:23;10.40;20.80
10231;DHT22;62604;49.432;8.680;2023-02-28T08:24:50;11.80;19.90
10231;DHT22;62604;49.432;8.680;2023-02-28T08:27:18;12.70;18.60
10231;DHT22;62604;49.432;8.680;2023-02-28T08:29:45;13.90;15.80
10231;DHT22;62604;49.432;8.680;2023-02-28T08:32:12;13.70;13.90
10231;DHT22;62604;49.432;8.680;2023-02-28T08:34:39;14.00;13.20
10231;DHT22;62604;49.432;8.680;2023-02-28T08:37:06;12.50;12.90
10231;DHT22;62604;49.432;8.680;2023-02-28T08:39:34;12.20;15.10
10231;DHT22;62604;49.432;8.680;2023-02-28T08:42:01;13.40;14.40
10231;DHT22;62604;49.432;8.680;2023-02-28T08:44:30;13.80;12.80
10231;DHT22;62604;49.432;8.680;2023-02-28T08:46:56;13.70;12.60
10231;DHT22;62604;49.432;8.680;2023-02-28T08:49:23;13.10;12.10
10231;DHT22;62604;49.432;8.680;2023-02-28T08:51:50;11.90;13.40
10231;DHT22;62604;49.432;8.680;2023-02-28T08:54:17;12.00;12.80
10231;DHT22;62604;49.432;8.680;2023-02-28T08:56:45;13.10;13.70
10231;DHT22;62604;49.432;8.680;2023-02-28T08:59:12;14.00;12.20
10231;DHT22;62604;49.432;8.680;2023-02-28T09:01:41;12.50;12.10
10231;DHT22;62604;49.432;8.680;2023-02-28T09:04:09;13.30;12.00
10231;DHT22;62604;49.432;8.680;2023-02-28T09:06:37;12.50;11.80
10231;DHT22;62604;49.432;8.680;2023-02-28T09:09:04;12.60;11.80
10231;DHT22;62604;49.432;8.680;2023-02-28T09:11:33;13.80;11.50
10231;DHT22;62604;49.432;8.680;2023-02-28T09:14:00;13.10;11.00
10231;DHT22;62604;49.432;8.680;2023-02-28T09:16:29;12.80;11.30
10231;DHT22;62604;49.432;8.680;2023-02-28T09:18:57;13.50;11.90
10231;DHT22;62604;49.432;8.680;2023-02-28T09:21:25;13.20;10.50
10231;DHT22;62604;49.432;8.680;2023-02-28T09:23:52;11.50;10.70
10231;DHT22;62604;49.432;8.680;2023-02-28T09:26:21;11.20;12.70
10231;DHT22;62604;49.432;8.680;2023-02-28T09:28:49;10.10;12.50
10231;DHT22;62604;49.432;8.680;2023-02-28T09:31:18;9.70;15.30
10231;DHT22;62604;49.432;8.680;2023-02-28T09:33:48;9.60;15.10
10231;DHT22;62604;49.432;8.680;2023-02-28T09:36:16;9.10;15.30
10231;DHT22;62604;49.432;8.680;2023-02-28T09:38:44;10.90;15.30
10231;DHT22;62604;49.432;8.680;2023-02-28T09:41:14;9.70;15.00
10231;DHT22;62604;49.432;8.680;2023-02-28T09:43:44;10.90;14.20
10231;DHT22;62604;49.432;8.680;2023-02-28T09:46:18;12.20;12.70
10231;DHT22;62604;49.432;8.680;2023-02-28T09:48:48;13.10;10.90
10231;DHT22;62604;49.432;8.680;2023-02-28T09:51:29;12.40;11.40
10231;DHT22;62604;49.432;8.680;2023-02-28T09:53:56;13.10;10.40
10231;DHT22;62604;49.432;8.680;2023-02-28T09:56:26;13.50;10.20
10231;DHT22;62604;49.432;8.680;2023-02-28T09:58:57;12.50;10.30
10231;DHT22;62604;49.432;8.680;2023-02-28T10:01:31;13.90;10.70
10231;DHT22;62604;49.432;8.680;2023-02-28T10:04:05;13.90;9.00
10231;DHT22;62604;49.432;8.680;2023-02-28T10:06:41;11.90;8.80
10231;DHT22;62604;49.432;8.680;2023-02-28T10:09:13;11.00;11.30
10231;DHT22;62604;49.432;8.680;2023-02-28T10:11:43;10.80;11.60
10231;DHT22;62604;49.432;8.680;2023-02-28T10:14:15;10.80;12.20
10231;DHT22;62604;49.432;8.680;2023-02-28T10:16:44;11.30;11.60
10231;DHT22;62604;49.432;8.680;2023-02-28T10:19:21;9.90;12.70
10231;DHT22;62604;49.432;8.680;2023-02-28T10:21:56;10.40;12.90
10231;DHT22;62604;49.432;8.680;2023-02-28T10:24:28;11.00;12.60
10231;DHT22;62604;49.432;8.680;2023-02-28T10:27:00;9.90;12.50
10231;DHT22;62604;49.432;8.680;2023-02-28T10:29:28;8.80;14.40
10231;DHT22;62604;49.432;8.680;2023-02-28T10:32:00;8.30;16.30
10231;DHT22;62604;49.432;8.680;2023-02-28T10:34:28;8.30;16.40
10231;DHT22;62604;49.432;8.680;2023-02-28T10:36:56;7.90;16.90
10231;DHT22;62604;49.432;8.680;2023-02-28T10:39:40;7.30;17.10
10231;DHT22;62604;49.432;8.680;2023-02-28T10:42:20;7.50;18.10
10231;DHT22;62604;49.432;8.680;2023-02-28T10:44:47;7.80;17.50
10231;DHT22;62604;49.432;8.680;2023-02-28T10:47:17;9.00;16.70
10231;DHT22;62604;49.432;8.680;2023-02-28T10:49:47;9.80;15.20
10231;DHT22;62604;49.432;8.680;2023-02-28T10:52:33;8.50;14.30
10231;DHT22;62604;49.432;8.680;2023-02-28T10:55:19;8.20;15.90
10231;DHT22;62604;49.432;8.680;2023-02-28T10:57:47;7.80;16.30
10231;DHT22;62604;49.432;8.680;2023-02-28T11:00:17;7.30;17.40
10231;DHT22;62604;49.432;8.680;2023-02-28T11:02:44;7.00;18.00
10231;DHT22;62604;49.432;8.680;2023-02-28T11:05:26;6.90;18.30
10231;DHT22;62604;49.432;8.680;2023-02-28T11:07:56;7.00;18.70
10231;DHT22;62604;49.432;8.680;2023-02-28T11:10:27;7.50;18.50
10231;DHT22;62604;49.432;8.680;2023-02-28T11:12:56;8.90;17.90
10231;DHT22;62604;49.432;8.680;2023-02-28T11:15:26;9.80;15.80
10231;DHT22;62604;49.432;8.680;2023-02-28T11:17:55;9.90;15.10
10231;DHT22;62604;49.432;8.680;2023-02-28T11:20:24;9.20;14.60
10231;DHT22;62604;49.432;8.680;2023-02-28T11:22:55;8.40;16.50
10231;DHT22;62604;49.432;8.680;2023-02-28T11:25:24;9.20;16.90
10231;DHT22;62604;49.432;8.680;2023-02-28T11:27:53;9.40;15.90
10231;DHT22;62604;49.432;8.680;2023-02-28T11:30:30;10.30;14.00
10231;DHT22;62604;49.432;8.680;2023-02-28T11:32:57;12.20;13.90
10231;DHT22;62604;49.432;8.680;2023-02-28T11:35:29;11.80;11.80
10231;DHT22;62604;49.432;8.680;2023-02-28T11:37:58;11.30;11.60
10231;DHT22;62604;49.432;8.680;2023-02-28T11:40:33;11.80;11.60
10231;DHT22;62604;49.432;8.680;2023-02-28T11:43:13;12.10;11.10
10231;DHT22;62604;49.432;8.680;2023-02-28T11:45:59;10.40;12.00
10231;DHT22;62604;49.432;8.680;2023-02-28T11:48:36;9.40;14.30
10231;DHT22;62604;49.432;8.680;2023-02-28T11:51:14;8.90;15.30
10231;DHT22;62604;49.432;8.680;2023-02-28T11:54:08;9.70;15.20
10231;DHT22;62604;49.432;8.680;2023-02-28T11:56:41;9.50;14.90
10231;DHT22;62604;49.432;8.680;2023-02-28T11:59:42;10.50;14.00
10231;DHT22;62604;49.432;8.680;2023-02-28T12:02:24;11.40;11.80
10231;DHT22;62604;49.432;8.680;2023-02-28T12:05:05;12.10;11.80
10231;DHT22;62604;49.432;8.680;2023-02-28T12:07:43;12.40;10.00
10231;DHT22;62604;49.432;8.680;2023-02-28T12:10:22;12.10;10.00
10231;DHT22;62604;49.432;8.680;2023-02-28T12:13:00;10.50;11.80
10231;DHT22;62604;49.432;8.680;2023-02-28T12:15:49;10.70;11.90
10231;DHT22;62604;49.432;8.680;2023-02-28T12:18:30;11.30;10.70
10231;DHT22;62604;49.432;8.680;2023-02-28T12:21:07;12.20;11.20
10231;DHT22;62604;49.432;8.680;2023-02-28T12:23:52;12.60;10.30
10231;DHT22;62604;49.432;8.680;2023-02-28T12:26:31;12.50;10.20
10231;DHT22;62604;49.432;8.680;2023-02-28T12:29:03;12.30;10.00
10231;DHT22;62604;49.432;8.680;2023-02-28T12:31:37;11.00;11.40
10231;DHT22;62604;49.432;8.680;2023-02-28T12:34:10;12.20;10.70
10231;DHT22;62604;49.432;8.680;2023-02-28T12:36:37;12.50;10.20
10231;DHT22;62604;49.432;8.680;2023-02-28T12:39:10;12.60;10.00
10231;DHT22;62604;49.432;8.680;2023-02-28T12:41:43;13.10;9.50
10231;DHT22;62604;49.432;8.680;2023-02-28T12:44:17;11.80;10.30
10231;DHT22;62604;49.432;8.680;2023-02-28T12:46:48;11.10;11.10
10231;DHT22;62604;49.432;8.680;2023-02-28T12:49:19;10.90;11.90
10231;DHT22;62604;49.432;8.680;2023-02-28T12:51:49;11.60;11.60
10231;DHT22;62604;49.432;8.680;2023-02-28T12:54:23;11.90;10.90
10231;DHT22;62604;49.432;8.680;2023-02-28T12:57:00;11.60;11.00
10231;DHT22;62604;49.432;8.680;2023-02-28T12:59:36;12.20;11.20
10231;DHT22;62604;49.432;8.680;2023-02-28T13:02:33;14.30;9.70
10231;DHT22;62604;49.432;8.680;2023-02-28T13:05:18;14.40;8.60
10231;DHT22;62604;49.432;8.680;2023-02-28T13:08:13;13.50;8.90
10231;DHT22;62604;49.432;8.680;2023-02-28T13:10:45;12.90;8.50
10231;DHT22;62604;49.432;8.680;2023-02-28T13:13:17;13.10;9.70
10231;DHT22;62604;49.432;8.680;2023-02-28T13:16:02;12.70;9.50
10231;DHT22;62604;49.432;8.680;2023-02-28T13:18:32;12.40;10.30
10231;DHT22;62604;49.432;8.680;2023-02-28T13:21:01;12.90;10.10
10231;DHT22;62604;49.432;8.680;2023-02-28T13:23:58;12.40;9.30
10231;DHT22;62604;49.432;8.680;2023-02-28T13:29:33;14.70;9.10
10231;DHT22;62604;49.432;8.680;2023-02-28T13:32:36;14.70;7.00
10231;DHT22;62604;49.432;8.680;2023-02-28T13:35:38;13.70;8.20
10231;DHT22;62604;49.432;8.680;2023-02-28T13:38:16;11.70;9.60
10231;DHT22;62604;49.432;8.680;2023-02-28T13:40:44;10.20;12.00
10231;DHT22;62604;49.432;8.680;2023-02-28T13:43:11;9.40;14.30
10231;DHT22;62604;49.432;8.680;2023-02-28T13:45:39;9.00;15.30
10231;DHT22;62604;49.432;8.680;2023-02-28T13:48:27;8.80;16.00
10231;DHT22;62604;49.432;8.680;2023-02-28T13:50:56;9.60;15.90
10231;DHT22;62604;49.432;8.680;2023-02-28T13:56:41;9.20;15.20
10231;DHT22;62604;49.432;8.680;2023-02-28T13:59:21;8.00;16.00
10231;DHT22;62604;49.432;8.680;2023-02-28T14:02:08;7.50;17.20
10231;DHT22;62604;49.432;8.680;2023-02-28T14:04:51;7.60;17.30
10231;DHT22;62604;49.432;8.680;2023-02-28T14:07:23;7.50;17.20
10231;DHT22;62604;49.432;8.680;2023-02-28T14:09:57;7.50;17.60
10231;DHT22;62604;49.432;8.680;2023-02-28T14:13:01;7.10;17.80
10231;DHT22;62604;49.432;8.680;2023-02-28T14:15:49;6.80;18.50
10231;DHT22;62604;49.432;8.680;2023-02-28T14:18:25;6.50;19.00
10231;DHT22;62604;49.432;8.680;2023-02-28T14:20:57;6.70;19.50
10231;DHT22;62604;49.432;8.680;2023-02-28T14:23:46;6.90;19.50
10231;DHT22;62604;49.432;8.680;2023-02-28T14:26:32;7.30;19.50
10231;DHT22;62604;49.432;8.680;2023-02-28T14:29:17;7.40;18.70
10231;DHT22;62604;49.432;8.680;2023-02-28T14:31:53;7.40;18.60
10231;DHT22;62604;49.432;8.680;2023-02-28T14:34:35;7.20;18.70
10231;DHT22;62604;49.432;8.680;2023-02-28T14:37:04;7.30;19.10
10231;DHT22;62604;49.432;8.680;2023-02-28T14:39:33;7.40;18.70
10231;DHT22;62604;49.432;8.680;2023-02-28T14:42:02;7.70;18.90
10231;DHT22;62604;49.432;8.680;2023-02-28T14:44:31;7.70;18.80
10231;DHT22;62604;49.432;8.680;2023-02-28T14:47:00;7.50;18.80
10231;DHT22;62604;49.432;8.680;2023-02-28T14:49:34;7.00;19.20
10231;DHT22;62604;49.432;8.680;2023-02-28T14:52:05;6.70;20.00
10231;DHT22;62604;49.432;8.680;2023-02-28T14:54:35;6.60;20.30
10231;DHT22;62604;49.432;8.680;2023-02-28T14:57:02;6.20;21.10
10231;DHT22;62604;49.432;8.680;2023-02-28T14:59:31;6.20;21.40
10231;DHT22;62604;49.432;8.680;2023-02-28T15:02:17;6.30;21.40
10231;DHT22;62604;49.432;8.680;2023-02-28T15:04:54;6.40;21.30
10231;DHT22;62604;49.432;8.680;2023-02-28T15:07:22;6.40;21.70
10231;DHT22;62604;49.432;8.680;2023-02-28T15:10:08;6.40;21.50
10231;DHT22;62604;49.432;8.680;2023-02-28T15:12:36;6.30;21.50
10231;DHT22;62604;49.432;8.680;2023-02-28T15:15:04;6.20;21.70
10231;DHT22;62604;49.432;8.680;2023-02-28T15:17:34;6.20;21.80
10231;DHT22;62604;49.432;8.680;2023-02-28T15:20:03;6.20;22.00
10231;DHT22;62604;49.432;8.680;2023-02-28T15:22:34;6.30;22.00
10231;DHT22;62604;49.432;8.680;2023-02-28T15:25:03;6.50;22.00
10231;DHT22;62604;49.432;8.680;2023-02-28T15:27:34;6.30;21.60
10231;DHT22;62604;49.432;8.680;2023-02-28T15:30:15;6.10;21.80
10231;DHT22;62604;49.432;8.680;2023-02-28T15:32:43;6.20;22.30
10231;DHT22;62604;49.432;8.680;2023-02-28T15:35:28;6.10;21.90
10231;DHT22;62604;49.432;8.680;2023-02-28T15:38:01;6.00;22.10
10231;DHT22;62604;49.432;8.680;2023-02-28T15:40:30;5.90;22.40
10231;DHT22;62604;49.432;8.680;2023-02-28T15:43:13;5.90;22.50
10231;DHT22;62604;49.432;8.680;2023-02-28T15:45:45;5.80;22.70
10231;DHT22;62604;49.432;8.680;2023-02-28T15:48:23;5.80;22.70
10231;DHT22;62604;49.432;8.680;2023-02-28T15:50:54;5.80;22.80
10231;DHT22;62604;49.432;8.680;2023-02-28T15:53:24;5.80;23.10
10231;DHT22;62604;49.432;8.680;2023-02-28T15:55:58;5.80;23.10
10231;DHT22;62604;49.432;8.680;2023-02-28T15:58:25;5.70;23.20
10231;DHT22;62604;49.432;8.680;2023-02-28T16:01:16;5.60;23.50
10231;DHT22;62604;49.432;8.680;2023-02-28T16:03:47;5.50;23.40
10231;DHT22;62604;49.432;8.680;2023-02-28T16:06:43;5.40;23.70
10231;DHT22;62604;49.432;8.680;2023-02-28T16:09:12;5.30;23.90
10231;DHT22;62604;49.432;8.680;2023-02-28T16:11:59;5.30;24.00
10231;DHT22;62604;49.432;8.680;2023-02-28T16:14:29;5.30;24.20
10231;DHT22;62604;49.432;8.680;2023-02-28T16:17:03;5.40;24.20
10231;DHT22;62604;49.432;8.680;2023-02-28T16:19:30;5.30;24.00
10231;DHT22;62604;49.432;8.680;2023-02-28T16:21:58;5.30;24.20
10231;DHT22;62604;49.432;8.680;2023-02-28T16:24:25;5.30;24.20
10231;DHT22;62604;49.432;8.680;2023-02-28T16:26:53;5.30;24.40